Strona główna
METAR-TAF:

METAR-TAF

Lotnisko :

Port lotniczy Mae Sot

Mae Sot, Tajlandia

Szerokość geograficzna: 16-40N, Długość geograficzna: 098-33E, wysokość: 196 m

Aktualna obserwacja pogody

Raport powstał 23 minut temu, godzina 04:00 UTC
Wiatr 2 kt z kierunków zmiennych
Temperatura 23°C
Wilgotność 53%
Ciśnienie 1016 hPa
Widzialność: 6000 m

METAR: VTPM 110400Z VRB02KT 6000 NSC 23/13 Q1016 NOSIG

czas: 11:23 (04:23 UTC)

Prognoza

Raport powstał 5 godziny i 23 minut temu, godzina 23:00 UTC
Prognoza ważna od 11 godzina 00 UTC do 11 godzina 24 UTC
Wiatr 7 kt od wschód
Widzialność: 5000 m
zamglenie
Stopniowe zmiany
od 11 godzina 01 UTC do 11 godzina 03 UTC
Widzialność: 7000 m
Stopniowe zmiany
od 11 godzina 04 UTC do 11 godzina 06 UTC
Widzialność 10 km lub więcej
Brak chmur poniżej 1500 m i brak chmur cumulonimbus

TAF: VTPM 102300Z 1100/1124 08007KT 5000 BR NSC BECMG 1101/1103 7000 NSW BECMG 1104/1106 CAVOK

Obserwacja i prognoza pogody dla ponad 4000 lotnisk (raport METAR i TAF).

Dostępne stacje oznaczono żółtymi i czerwonymi punktami na mapie.

Najedź kursorem aby zobaczyć nazwę stacji.

Kliknij aby zobaczyć obserwacje i prognozy pogody.

Aby zmienić mapę: kliknij na zielony przycisk z czarnym krzyżykiem, aby powiększyć; na zielony przycisk z myślnikiem, aby pomniejszyć; na zielone strzałki, aby przejść do map sąsiednich.


METAR-TAF: